Jock — WDF2423 — position and weather

sailwx.info

Track history (hours):
 
Tides and Currents Weather Stations Pressure Air Temp Water Temp Dewpoint Dewpoint Depression Visibility Wind Speed Wind Dir Waves Ship Positions

Jock

Owner: Enterprise Marine Services, LLC, San Antonio, TX. More information available from US FCC via Universal Licensing System and Coast Guard Vessel Documentation Center.

Last reported at 2015-Mar-25 18:29 UTC. Time now 2015-Mar-29 04:27 UTC.
Position N 29°30' W 094°52'.

Length 28 m.

Type: Other ship. MMSI: 367003460.

Date/timePositionNaut miles runAvg speedWind from/ knotsBaromVisibWave heightAir tempDewpointWater temp
2015-Mar-25 18:29N 29°30' W 094°52'5 5.3
2015-Mar-25 17:33N 29°34' W 094°56'6 5.8
2015-Mar-25 16:33N 29°40' W 094°58'5 5.2
2015-Mar-25 15:33N 29°44' W 095°02'4 4.3
2015-Mar-25 14:33N 29°44' W 095°07'4 4.4
2015-Mar-25 13:33N 29°45' W 095°12'0 0.0
2015-Mar-24 18:33N 29°45' W 095°12'2 2.5
2015-Mar-24 17:33N 29°44' W 095°09'4 4.2
2015-Mar-24 16:33N 29°46' W 095°05'1 1.2
2015-Mar-24 15:33N 29°47' W 095°05'0 0.3
2015-Mar-24 14:33N 29°47' W 095°05'0 0.0
2015-Mar-24 13:33N 29°47' W 095°05'0 0.0
2015-Mar-24 12:33N 29°47' W 095°05'0 0.0
2015-Mar-24 11:33N 29°47' W 095°05'0 0.0
2015-Mar-24 10:33N 29°47' W 095°05'0 0.0
2015-Mar-24 09:33N 29°47' W 095°05'0 0.0
2015-Mar-24 08:33N 29°47' W 095°05'0 0.0
2015-Mar-24 07:33N 29°47' W 095°05'0 0.0
2015-Mar-24 06:17N 29°47' W 095°05'0 0.0
2015-Mar-24 05:33N 29°47' W 095°05'0 0.0
2015-Mar-24 04:33N 29°47' W 095°05'0 0.0
2015-Mar-24 03:33N 29°47' W 095°05'0 0.0
2015-Mar-24 02:33N 29°47' W 095°05'0 0.0
2015-Mar-24 01:33N 29°47' W 095°05'0 0.0
2015-Mar-24 00:33N 29°47' W 095°05'0 0.0
2015-Mar-23 23:33N 29°47' W 095°05'0 0.0
2015-Mar-23 22:33N 29°47' W 095°05'0 0.0
2015-Mar-23 21:33N 29°47' W 095°05'0 0.0
2015-Mar-23 20:29N 29°47' W 095°05'0 0.0
2015-Mar-23 19:33N 29°47' W 095°05'0 0.0
2015-Mar-23 18:31N 29°47' W 095°05'0 0.0
2015-Mar-23 17:33N 29°47' W 095°05'1 0.8
2015-Mar-23 16:33N 29°46' W 095°05'2 2.4
2015-Mar-23 15:33N 29°45' W 095°06'3 3.3
2015-Mar-23 14:33N 29°45' W 095°10'4 3.9
2015-Mar-23 13:33N 29°45' W 095°06'2 1.0
2015-Mar-23 11:33N 29°47' W 095°05'0 0.0
2015-Mar-23 10:10N 29°47' W 095°05'0 0.0
2015-Mar-23 09:33N 29°47' W 095°05'0 0.0
2015-Mar-23 08:22N 29°47' W 095°05'0 0.0
2015-Mar-23 07:31N 29°47' W 095°05'0 0.0
2015-Mar-23 06:23N 29°47' W 095°05'0 0.0
2015-Mar-23 05:19N 29°47' W 095°05'0 0.0
2015-Mar-23 04:31N 29°47' W 095°05'0 0.0
2015-Mar-23 03:33N 29°47' W 095°05'0 0.0
2015-Mar-23 02:25N 29°47' W 095°05'0 0.0
2015-Mar-22 23:20N 29°47' W 095°05'0 0.0
2015-Mar-22 22:19N 29°47' W 095°05'0 0.0
2015-Mar-22 21:33N 29°47' W 095°05'0 0.0
2015-Mar-22 20:15N 29°47' W 095°05'0 0.0
2015-Mar-22 19:18N 29°47' W 095°05'0 0.0
2015-Mar-22 18:18N 29°47' W 095°05'0 0.0
2015-Mar-22 09:30N 29°47' W 095°05'0 0.0
2015-Mar-22 00:25N 29°47' W 095°05'1 0.1
2015-Mar-21 17:31N 29°47' W 095°04'3 2.7
2015-Mar-21 16:16N 29°44' W 095°06'3 3.4
2015-Mar-21 15:24N 29°45' W 095°10'1 0.1
2015-Mar-21 01:24N 29°45' W 095°11'4 4.9
2015-Mar-21 00:33N 29°45' W 095°06'3 3.1
2015-Mar-20 23:32N 29°47' W 095°05'0 0.0
2015-Mar-20 18:33N 29°47' W 095°05'0 0.0
2015-Mar-20 17:33N 29°47' W 095°05'0 0.0
2015-Mar-20 16:32N 29°47' W 095°05'0 0.0
2015-Mar-20 15:23N 29°47' W 095°05'0 0.0
2015-Mar-20 14:17N 29°47' W 095°05'0 0.0
2015-Mar-20 13:33N 29°47' W 095°05'0 0.0
2015-Mar-19 21:15N 29°47' W 095°05'0 0.0
2015-Mar-19 14:33N 29°47' W 095°05'0 0.0
2015-Mar-19 13:33N 29°47' W 095°05'0 0.0
2015-Mar-18 20:05N 29°47' W 095°05'0 0.0
2015-Mar-18 17:33N 29°47' W 095°05'0 0.0
2015-Mar-18 16:25N 29°47' W 095°05'0 0.0
2015-Mar-18 15:29N 29°47' W 095°05'0 0.0
2015-Mar-18 14:05N 29°47' W 095°05'0 0.0
2015-Mar-18 04:04N 29°47' W 095°05'0 0.3
2015-Mar-18 03:31N 29°47' W 095°05'0 0.0
2015-Mar-17 20:12N 29°47' W 095°05'0 0.0
2015-Mar-17 19:33N 29°47' W 095°05'0 0.0
2015-Mar-17 18:33N 29°47' W 095°05'0 0.0
2015-Mar-17 17:33N 29°47' W 095°05'0 0.0
2015-Mar-17 16:33N 29°47' W 095°05'0 0.1
2015-Mar-17 15:33N 29°47' W 095°05'0 0.1
2015-Mar-17 14:33N 29°47' W 095°05'0 0.0
2015-Mar-17 13:33N 29°47' W 095°05'0 0.0
2015-Mar-17 10:33N 29°47' W 095°05'0 0.0
2015-Mar-17 09:22N 29°47' W 095°05'0 0.0
2015-Mar-17 08:19N 29°47' W 095°05'0 0.0
2015-Mar-17 07:11N 29°47' W 095°05'0 0.0
2015-Mar-17 03:09N 29°47' W 095°05'0 0.0
2015-Mar-17 01:30N 29°47' W 095°05'0 0.0
2015-Mar-17 00:32N 29°47' W 095°05'0 0.0
2015-Mar-16 23:31N 29°47' W 095°05'0 0.0
2015-Mar-16 22:14N 29°47' W 095°05'0 0.0
2015-Mar-16 21:05N 29°47' W 095°05'0 0.0
2015-Mar-16 20:33N 29°47' W 095°05'0 0.0
2015-Mar-16 19:33N 29°47' W 095°05'0 0.0
2015-Mar-16 18:27N 29°47' W 095°05'0 0.0
2015-Mar-16 17:32N 29°47' W 095°05'0 0.0
2015-Mar-16 16:33N 29°47' W 095°05'0 0.0
2015-Mar-16 15:33N 29°47' W 095°05'0 0.0
2015-Mar-16 14:32N 29°47' W 095°05'0 0.0
2015-Mar-16 13:33N 29°47' W 095°05'0 0.0
2015-Mar-15 20:27N 29°47' W 095°05'1 1.3
2015-Mar-15 19:23N 29°46' W 095°05'4 4.8
2015-Mar-15 18:33N 29°43' W 095°01'  
Track history (hours):
 
Tides and Currents Weather Stations Pressure Air Temp Water Temp Dewpoint Dewpoint Depression Visibility Wind Speed Wind Dir Waves Ship Positions

Jock

Owner: Enterprise Marine Services, LLC, San Antonio, TX. More information available from US FCC via Universal Licensing System and Coast Guard Vessel Documentation Center.

Last reported at 2015-Mar-25 18:29 UTC. Time now 2015-Mar-29 04:27 UTC.
Position N 29°30' W 094°52'.

Length 28 m.

Type: Other ship. MMSI: 367003460.

Date/timePositionNaut miles runAvg speedWind from/ knotsBaromVisibWave heightAir tempDewpointWater temp
2015-Mar-25 18:29N 29°30' W 094°52'5 5.3
2015-Mar-25 17:33N 29°34' W 094°56'6 5.8
2015-Mar-25 16:33N 29°40' W 094°58'5 5.2
2015-Mar-25 15:33N 29°44' W 095°02'4 4.3
2015-Mar-25 14:33N 29°44' W 095°07'4 4.4
2015-Mar-25 13:33N 29°45' W 095°12'0 0.0
2015-Mar-24 18:33N 29°45' W 095°12'2 2.5
2015-Mar-24 17:33N 29°44' W 095°09'4 4.2
2015-Mar-24 16:33N 29°46' W 095°05'1 1.2
2015-Mar-24 15:33N 29°47' W 095°05'0 0.3
2015-Mar-24 14:33N 29°47' W 095°05'0 0.0
2015-Mar-24 13:33N 29°47' W 095°05'0 0.0
2015-Mar-24 12:33N 29°47' W 095°05'0 0.0
2015-Mar-24 11:33N 29°47' W 095°05'0 0.0
2015-Mar-24 10:33N 29°47' W 095°05'0 0.0
2015-Mar-24 09:33N 29°47' W 095°05'0 0.0
2015-Mar-24 08:33N 29°47' W 095°05'0 0.0
2015-Mar-24 07:33N 29°47' W 095°05'0 0.0
2015-Mar-24 06:17N 29°47' W 095°05'0 0.0
2015-Mar-24 05:33N 29°47' W 095°05'0 0.0
2015-Mar-24 04:33N 29°47' W 095°05'0 0.0
2015-Mar-24 03:33N 29°47' W 095°05'0 0.0
2015-Mar-24 02:33N 29°47' W 095°05'0 0.0
2015-Mar-24 01:33N 29°47' W 095°05'0 0.0
2015-Mar-24 00:33N 29°47' W 095°05'0 0.0
2015-Mar-23 23:33N 29°47' W 095°05'0 0.0
2015-Mar-23 22:33N 29°47' W 095°05'0 0.0
2015-Mar-23 21:33N 29°47' W 095°05'0 0.0
2015-Mar-23 20:29N 29°47' W 095°05'0 0.0
2015-Mar-23 19:33N 29°47' W 095°05'0 0.0
2015-Mar-23 18:31N 29°47' W 095°05'0 0.0
2015-Mar-23 17:33N 29°47' W 095°05'1 0.8
2015-Mar-23 16:33N 29°46' W 095°05'2 2.4
2015-Mar-23 15:33N 29°45' W 095°06'3 3.3
2015-Mar-23 14:33N 29°45' W 095°10'4 3.9
2015-Mar-23 13:33N 29°45' W 095°06'2 1.0
2015-Mar-23 11:33N 29°47' W 095°05'0 0.0
2015-Mar-23 10:10N 29°47' W 095°05'0 0.0
2015-Mar-23 09:33N 29°47' W 095°05'0 0.0
2015-Mar-23 08:22N 29°47' W 095°05'0 0.0
2015-Mar-23 07:31N 29°47' W 095°05'0 0.0
2015-Mar-23 06:23N 29°47' W 095°05'0 0.0
2015-Mar-23 05:19N 29°47' W 095°05'0 0.0
2015-Mar-23 04:31N 29°47' W 095°05'0 0.0
2015-Mar-23 03:33N 29°47' W 095°05'0 0.0
2015-Mar-23 02:25N 29°47' W 095°05'0 0.0
2015-Mar-22 23:20N 29°47' W 095°05'0 0.0
2015-Mar-22 22:19N 29°47' W 095°05'0 0.0
2015-Mar-22 21:33N 29°47' W 095°05'0 0.0
2015-Mar-22 20:15N 29°47' W 095°05'0 0.0
2015-Mar-22 19:18N 29°47' W 095°05'0 0.0
2015-Mar-22 18:18N 29°47' W 095°05'0 0.0
2015-Mar-22 09:30N 29°47' W 095°05'0 0.0
2015-Mar-22 00:25N 29°47' W 095°05'1 0.1
2015-Mar-21 17:31N 29°47' W 095°04'3 2.7
2015-Mar-21 16:16N 29°44' W 095°06'3 3.4
2015-Mar-21 15:24N 29°45' W 095°10'1 0.1
2015-Mar-21 01:24N 29°45' W 095°11'4 4.9
2015-Mar-21 00:33N 29°45' W 095°06'3 3.1
2015-Mar-20 23:32N 29°47' W 095°05'0 0.0
2015-Mar-20 18:33N 29°47' W 095°05'0 0.0
2015-Mar-20 17:33N 29°47' W 095°05'0 0.0
2015-Mar-20 16:32N 29°47' W 095°05'0 0.0
2015-Mar-20 15:23N 29°47' W 095°05'0 0.0
2015-Mar-20 14:17N 29°47' W 095°05'0 0.0
2015-Mar-20 13:33N 29°47' W 095°05'0 0.0
2015-Mar-19 21:15N 29°47' W 095°05'0 0.0
2015-Mar-19 14:33N 29°47' W 095°05'0 0.0
2015-Mar-19 13:33N 29°47' W 095°05'0 0.0
2015-Mar-18 20:05N 29°47' W 095°05'0 0.0
2015-Mar-18 17:33N 29°47' W 095°05'0 0.0
2015-Mar-18 16:25N 29°47' W 095°05'0 0.0
2015-Mar-18 15:29N 29°47' W 095°05'0 0.0
2015-Mar-18 14:05N 29°47' W 095°05'0 0.0
2015-Mar-18 04:04N 29°47' W 095°05'0 0.3
2015-Mar-18 03:31N 29°47' W 095°05'0 0.0
2015-Mar-17 20:12N 29°47' W 095°05'0 0.0
2015-Mar-17 19:33N 29°47' W 095°05'0 0.0
2015-Mar-17 18:33N 29°47' W 095°05'0 0.0
2015-Mar-17 17:33N 29°47' W 095°05'0 0.0
2015-Mar-17 16:33N 29°47' W 095°05'0 0.1
2015-Mar-17 15:33N 29°47' W 095°05'0 0.1
2015-Mar-17 14:33N 29°47' W 095°05'0 0.0
2015-Mar-17 13:33N 29°47' W 095°05'0 0.0
2015-Mar-17 10:33N 29°47' W 095°05'0 0.0
2015-Mar-17 09:22N 29°47' W 095°05'0 0.0
2015-Mar-17 08:19N 29°47' W 095°05'0 0.0
2015-Mar-17 07:11N 29°47' W 095°05'0 0.0
2015-Mar-17 03:09N 29°47' W 095°05'0 0.0
2015-Mar-17 01:30N 29°47' W 095°05'0 0.0
2015-Mar-17 00:32N 29°47' W 095°05'0 0.0
2015-Mar-16 23:31N 29°47' W 095°05'0 0.0
2015-Mar-16 22:14N 29°47' W 095°05'0 0.0
2015-Mar-16 21:05N 29°47' W 095°05'0 0.0
2015-Mar-16 20:33N 29°47' W 095°05'0 0.0
2015-Mar-16 19:33N 29°47' W 095°05'0 0.0
2015-Mar-16 18:27N 29°47' W 095°05'0 0.0
2015-Mar-16 17:32N 29°47' W 095°05'0 0.0
2015-Mar-16 16:33N 29°47' W 095°05'0 0.0
2015-Mar-16 15:33N 29°47' W 095°05'0 0.0
2015-Mar-16 14:32N 29°47' W 095°05'0 0.0
2015-Mar-16 13:33N 29°47' W 095°05'0 0.0
2015-Mar-15 20:27N 29°47' W 095°05'1 1.3
2015-Mar-15 19:23N 29°46' W 095°05'4 4.8
2015-Mar-15 18:33N 29°43' W 095°01'  

Dump ship's entire track history